createdAt,value
2022-09-14T00:00:42.602Z,97668.06
2022-09-14T00:01:45.647Z,97672.78
2022-09-14T00:02:48.657Z,97674.13
2022-09-14T00:03:57.707Z,97667.72
2022-09-14T00:05:00.652Z,97672.25
2022-09-14T00:06:08.761Z,97668.06
2022-09-14T00:07:11.752Z,97668.94
2022-09-14T00:08:15.629Z,97665.75
2022-09-14T00:09:22.198Z,97667.94
2022-09-14T00:10:24.970Z,97666.19
2022-09-14T00:11:30.237Z,97657.53
2022-09-14T00:12:33.337Z,97653.91
2022-09-14T00:13:36.756Z,97658.63
2022-09-14T00:14:40.946Z,97657.59
2022-09-14T00:15:46.573Z,97656.75
2022-09-14T00:16:49.959Z,97653.47
2022-09-14T00:17:52.906Z,97657.84
2022-09-14T00:19:05.842Z,97654.22
2022-09-14T00:20:09.460Z,97656.00
2022-09-14T00:21:13.423Z,97653.91
2022-09-14T00:22:16.332Z,97654.47
2022-09-14T00:23:19.311Z,97643.59
2022-09-14T00:24:23.725Z,97647.00
2022-09-14T00:25:26.714Z,97639.09
2022-09-14T00:26:29.686Z,97640.94
2022-09-14T00:27:33.057Z,97639.19
2022-09-14T00:28:41.341Z,97639.31
2022-09-14T00:29:44.350Z,97642.50
2022-09-14T00:30:47.552Z,97649.84
2022-09-14T00:31:50.970Z,97645.69
2022-09-14T00:32:54.028Z,97644.47
2022-09-14T00:33:56.973Z,97647.44
2022-09-14T00:34:59.927Z,97650.31
2022-09-14T00:36:26.716Z,97646.44
2022-09-14T00:37:29.592Z,97648.53
2022-09-14T00:38:33.720Z,97656.34
2022-09-14T00:39:37.009Z,97645.69
2022-09-14T00:40:41.461Z,97649.62
2022-09-14T00:41:46.833Z,97652.94
2022-09-14T00:42:51.859Z,97652.59
2022-09-14T00:43:59.810Z,97649.94
2022-09-14T00:45:08.515Z,97649.31
2022-09-14T00:46:11.459Z,97648.97
2022-09-14T00:47:17.097Z,97641.50
2022-09-14T00:48:23.184Z,97647.13
2022-09-14T00:49:27.758Z,97646.00
2022-09-14T00:50:31.769Z,97647.44
2022-09-14T00:51:37.949Z,97645.69
2022-09-14T00:52:44.380Z,97644.47
2022-09-14T00:55:00.311Z,97635.81
2022-09-14T00:56:03.752Z,97634.03
2022-09-14T00:57:07.217Z,97636.44
2022-09-14T00:58:10.116Z,97638.19
2022-09-14T00:59:17.892Z,97636.88
2022-09-14T01:00:24.802Z,97633.72
2022-09-14T01:02:37.619Z,97635.25
2022-09-14T01:03:40.628Z,97628.78
2022-09-14T01:04:43.918Z,97622.75
2022-09-14T01:05:58.932Z,97628.44
2022-09-14T01:07:23.601Z,97634.69
2022-09-14T01:08:59.639Z,97633.38
2022-09-14T01:10:26.953Z,97628.88
2022-09-14T01:12:06.927Z,97631.72
2022-09-14T01:13:09.893Z,97634.69
2022-09-14T01:14:18.932Z,97636.03
2022-09-14T01:15:32.765Z,97633.03
2022-09-14T01:16:48.546Z,97627.66
2022-09-14T01:18:08.577Z,97627.25
2022-09-14T01:19:24.044Z,97625.50
2022-09-14T01:20:36.150Z,97628.88
2022-09-14T01:21:42.720Z,97629.06
2022-09-14T01:22:53.185Z,97627.88
2022-09-14T01:24:25.563Z,97620.59
2022-09-14T01:25:56.148Z,97622.63
2022-09-14T01:26:59.045Z,97627.34
2022-09-14T01:28:08.381Z,97618.66
2022-09-14T01:29:36.146Z,97624.16
2022-09-14T01:30:44.897Z,97622.97
2022-09-14T01:32:06.732Z,97621.84
2022-09-14T01:33:27.815Z,97617.66
2022-09-14T01:34:54.781Z,97618.00
2022-09-14T01:36:01.686Z,97611.28
2022-09-14T01:37:26.242Z,97611.19
2022-09-14T01:38:32.006Z,97613.53
2022-09-14T01:39:38.490Z,97613.81
2022-09-14T01:40:48.533Z,97604.28
2022-09-14T01:41:54.669Z,97606.91
2022-09-14T01:43:15.380Z,97608.34
2022-09-14T01:44:32.332Z,97601.50
2022-09-14T01:45:38.804Z,97606.47
2022-09-14T01:46:46.027Z,97608.09
2022-09-14T01:48:00.631Z,97597.12
2022-09-14T01:49:20.878Z,97599.56
2022-09-14T01:50:31.542Z,97598.88
2022-09-14T01:51:39.820Z,97600.44
2022-09-14T01:52:47.643Z,97591.63
2022-09-14T01:53:57.834Z,97588.78
2022-09-14T01:55:08.122Z,97586.59
2022-09-14T01:56:23.963Z,97589.66
2022-09-14T01:57:35.339Z,97587.66
2022-09-14T01:58:56.410Z,97584.41
2022-09-14T02:00:05.646Z,97578.44
2022-09-14T02:01:14.509Z,97576.03
2022-09-14T02:02:24.128Z,97571.53
2022-09-14T02:03:32.924Z,97579.91
2022-09-14T02:05:04.009Z,97569.13
2022-09-14T02:06:09.545Z,97566.75
2022-09-14T02:07:12.664Z,97572.78
2022-09-14T02:08:15.720Z,97568.38
2022-09-14T02:09:26.663Z,97569.91
2022-09-14T02:10:29.854Z,97572.88
2022-09-14T02:11:32.779Z,97564.75
2022-09-14T02:12:36.618Z,97560.13
2022-09-14T02:13:39.784Z,97564.09
2022-09-14T02:14:45.605Z,97564.19
2022-09-14T02:15:48.572Z,97561.13
2022-09-14T02:16:52.318Z,97556.72
2022-09-14T02:17:55.700Z,97549.25
2022-09-14T02:19:01.872Z,97548.31
2022-09-14T02:20:08.472Z,97542.81
2022-09-14T02:21:18.665Z,97546.03
2022-09-14T02:22:21.689Z,97543.50
2022-09-14T02:23:24.800Z,97543.22
2022-09-14T02:24:28.750Z,97539.69
2022-09-14T02:25:32.418Z,97547.59
2022-09-14T02:26:35.809Z,97540.47
2022-09-14T02:27:38.854Z,97532.78
2022-09-14T02:28:41.912Z,97541.34
2022-09-14T02:29:45.024Z,97546.16
2022-09-14T02:31:19.609Z,97547.81
2022-09-14T02:32:44.100Z,97540.81
2022-09-14T02:33:49.886Z,97540.28
2022-09-14T02:35:26.518Z,97536.97
2022-09-14T02:36:46.862Z,97536.06
2022-09-14T02:37:55.685Z,97531.87
2022-09-14T02:39:14.462Z,97524.22
2022-09-14T02:40:39.319Z,97521.25
2022-09-14T02:42:17.535Z,97521.50
2022-09-14T02:43:49.775Z,97526.25
2022-09-14T02:45:11.810Z,97521.59
2022-09-14T02:46:19.785Z,97514.34
2022-09-14T02:47:44.349Z,97516.41
2022-09-14T02:48:55.426Z,97524.22
2022-09-14T02:50:04.623Z,97530.50
2022-09-14T02:51:25.742Z,97529.25
2022-09-14T02:52:38.264Z,97532.09
2022-09-14T02:53:59.826Z,97527.72
2022-09-14T02:55:08.472Z,97528.94
2022-09-14T02:56:12.890Z,97531.94
2022-09-14T02:57:16.282Z,97524.84
2022-09-14T02:58:19.298Z,97529.34
2022-09-14T02:59:22.996Z,97521.78
2022-09-14T03:00:25.949Z,97521.97
2022-09-14T03:01:28.896Z,97508.94
2022-09-14T03:02:31.771Z,97506.63
2022-09-14T03:03:35.817Z,97509.19
2022-09-14T03:04:38.959Z,97503.41
2022-09-14T03:05:42.487Z,97503.50
2022-09-14T03:06:45.771Z,97503.59
2022-09-14T03:07:48.703Z,97514.81
2022-09-14T03:08:51.911Z,97514.81
2022-09-14T03:09:55.002Z,97519.22
2022-09-14T03:10:58.635Z,97512.94
2022-09-14T03:12:01.681Z,97514.81
2022-09-14T03:13:05.206Z,97512.19
2022-09-14T03:14:08.106Z,97512.28
2022-09-14T03:15:11.616Z,97514.38
2022-09-14T03:16:16.637Z,97507.84
2022-09-14T03:17:19.595Z,97512.94
2022-09-14T03:18:22.889Z,97506.56
2022-09-14T03:19:25.907Z,97503.91
2022-09-14T03:20:32.407Z,97508.53
2022-09-14T03:21:35.352Z,97515.34
2022-09-14T03:22:38.379Z,97509.41
2022-09-14T03:23:45.081Z,97515.00
2022-09-14T03:24:47.989Z,97507.44
2022-09-14T03:25:50.874Z,97509.41
2022-09-14T03:26:53.905Z,97510.16
2022-09-14T03:27:59.835Z,97506.25
2022-09-14T03:29:04.520Z,97505.94
2022-09-14T03:30:08.352Z,97497.34
2022-09-14T03:31:12.795Z,97506.28
2022-09-14T03:32:15.854Z,97501.50
2022-09-14T03:33:18.707Z,97501.41
2022-09-14T03:34:22.777Z,97503.19
2022-09-14T03:35:29.441Z,97499.38
2022-09-14T03:36:32.829Z,97504.22
2022-09-14T03:37:41.546Z,97496.91
2022-09-14T03:38:46.381Z,97506.16
2022-09-14T03:39:49.391Z,97508.87
2022-09-14T03:40:53.357Z,97503.44
2022-09-14T03:41:56.183Z,97509.78
2022-09-14T03:42:59.482Z,97518.84
2022-09-14T03:44:02.480Z,97515.72
2022-09-14T03:45:05.893Z,97521.38
2022-09-14T03:46:11.260Z,97520.81
2022-09-14T03:47:14.444Z,97524.81
2022-09-14T03:48:17.338Z,97523.28
2022-09-14T03:49:20.232Z,97524.06
2022-09-14T03:50:23.142Z,97517.25
2022-09-14T03:51:29.690Z,97515.09
2022-09-14T03:52:33.702Z,97515.28
2022-09-14T03:53:37.568Z,97517.84
2022-09-14T03:54:40.849Z,97522.47
2022-09-14T03:55:43.615Z,97522.38
2022-09-14T03:56:46.458Z,97517.53
2022-09-14T03:57:49.377Z,97515.56
2022-09-14T03:58:52.415Z,97515.16
2022-09-14T03:59:55.387Z,97520.62
2022-09-14T04:01:05.037Z,97518.06
2022-09-14T04:02:07.949Z,97514.25
2022-09-14T04:03:10.950Z,97519.53
2022-09-14T04:04:14.119Z,97516.91
2022-09-14T04:05:21.589Z,97516.22
2022-09-14T04:06:26.581Z,97515.19
2022-09-14T04:07:29.847Z,97506.41
2022-09-14T04:08:35.697Z,97509.28
2022-09-14T04:09:39.044Z,97515.22
2022-09-14T04:10:41.899Z,97523.25
2022-09-14T04:11:44.717Z,97515.28
2022-09-14T04:12:47.656Z,97508.44
2022-09-14T04:13:51.485Z,97509.41
2022-09-14T04:14:54.330Z,97503.88
2022-09-14T04:16:01.478Z,97508.13
2022-09-14T04:17:04.866Z,97505.94
2022-09-14T04:18:11.494Z,97505.38
2022-09-14T04:19:14.788Z,97499.38
2022-09-14T04:20:21.147Z,97493.00
2022-09-14T04:21:25.706Z,97488.38
2022-09-14T04:22:28.477Z,97488.75
2022-09-14T04:23:32.602Z,97484.47
2022-09-14T04:24:35.761Z,97488.88
2022-09-14T04:25:38.956Z,97484.59
2022-09-14T04:26:42.745Z,97484.06
2022-09-14T04:27:55.031Z,97489.47
2022-09-14T04:29:07.298Z,97496.66
2022-09-14T04:30:12.030Z,97490.50
2022-09-14T04:31:15.290Z,97481.16
2022-09-14T04:32:18.178Z,97480.13
2022-09-14T04:33:21.079Z,97481.47
2022-09-14T04:34:23.946Z,97477.09
2022-09-14T04:35:26.837Z,97480.63
2022-09-14T04:36:31.574Z,97479.06
2022-09-14T04:37:34.470Z,97487.38
2022-09-14T04:38:39.090Z,97484.19
2022-09-14T04:39:42.692Z,97485.72
2022-09-14T04:40:46.478Z,97487.81
2022-09-14T04:41:49.770Z,97492.47
2022-09-14T04:42:52.602Z,97484.41
2022-09-14T04:43:56.764Z,97482.09
2022-09-14T04:44:59.603Z,97483.91
2022-09-14T04:46:07.483Z,97479.63
2022-09-14T04:47:10.442Z,97475.88
2022-09-14T04:48:16.824Z,97466.12
2022-09-14T04:49:21.805Z,97467.66
2022-09-14T04:50:24.662Z,97461.69
2022-09-14T04:51:30.307Z,97460.34
2022-09-14T04:52:33.144Z,97461.03
2022-09-14T04:53:37.642Z,97461.47
2022-09-14T04:54:40.439Z,97455.50
2022-09-14T04:55:43.443Z,97455.44
2022-09-14T04:56:46.582Z,97457.09
2022-09-14T04:57:49.726Z,97459.72
2022-09-14T04:58:59.142Z,97458.22
2022-09-14T05:00:02.475Z,97457.13
2022-09-14T05:01:09.144Z,97462.22
2022-09-14T05:02:11.991Z,97467.88
2022-09-14T05:03:14.886Z,97468.47
2022-09-14T05:04:17.980Z,97463.94
2022-09-14T05:05:20.886Z,97463.09
2022-09-14T05:06:27.178Z,97471.09
2022-09-14T05:07:33.665Z,97465.06
2022-09-14T05:08:38.799Z,97466.25
2022-09-14T05:09:41.865Z,97474.84
2022-09-14T05:10:45.175Z,97466.25
2022-09-14T05:11:50.117Z,97472.72
2022-09-14T05:12:53.146Z,97481.59
2022-09-14T05:14:03.746Z,97475.47
2022-09-14T05:15:07.353Z,97479.28
2022-09-14T05:16:22.304Z,97486.44
2022-09-14T05:17:25.420Z,97485.94
2022-09-14T05:18:28.495Z,97486.53
2022-09-14T05:19:31.628Z,97487.53
2022-09-14T05:20:35.135Z,97491.47
2022-09-14T05:21:38.538Z,97490.69
2022-09-14T05:22:41.398Z,97481.66
2022-09-14T05:23:44.628Z,97481.84
2022-09-14T05:24:47.576Z,97485.41
2022-09-14T05:25:54.221Z,97492.06
2022-09-14T05:27:01.601Z,97489.09
2022-09-14T05:28:05.300Z,97485.87
2022-09-14T05:29:11.891Z,97482.47
2022-09-14T05:30:14.797Z,97476.50
2022-09-14T05:31:17.867Z,97470.72
2022-09-14T05:32:20.880Z,97459.94
2022-09-14T05:33:24.168Z,97459.88
2022-09-14T05:34:27.100Z,97445.66
2022-09-14T05:35:30.092Z,97447.84
2022-09-14T05:36:33.100Z,97445.66
2022-09-14T05:37:36.011Z,97446.47
2022-09-14T05:38:40.348Z,97465.03
2022-09-14T05:39:43.204Z,97453.63
2022-09-14T05:40:46.296Z,97462.44
2022-09-14T05:41:50.464Z,97454.56
2022-09-14T05:42:53.384Z,97460.25
2022-09-14T05:43:56.519Z,97464.59
2022-09-14T05:44:59.467Z,97463.16
2022-09-14T05:46:04.293Z,97463.37
2022-09-14T05:47:07.338Z,97461.75
2022-09-14T05:48:10.262Z,97463.31
2022-09-14T05:49:13.084Z,97472.06
2022-09-14T05:50:19.580Z,97479.94
2022-09-14T05:51:24.496Z,97481.94
2022-09-14T05:52:30.212Z,97476.66
2022-09-14T05:53:33.955Z,97477.91
2022-09-14T05:54:36.891Z,97485.37
2022-09-14T05:55:39.857Z,97489.69
2022-09-14T05:56:42.844Z,97490.19
2022-09-14T05:57:50.352Z,97499.44
2022-09-14T05:58:53.868Z,97488.38
2022-09-14T06:00:00.699Z,97486.59
2022-09-14T06:01:21.737Z,97489.81
2022-09-14T06:02:25.339Z,97481.06
2022-09-14T06:03:28.304Z,97486.28
2022-09-14T06:04:31.301Z,97474.78
2022-09-14T06:05:36.077Z,97479.91
2022-09-14T06:06:39.163Z,97477.53
2022-09-14T06:07:43.045Z,97471.91
2022-09-14T06:08:46.988Z,97475.16
2022-09-14T06:09:49.830Z,97461.00
2022-09-14T06:10:52.843Z,97474.03
2022-09-14T06:11:55.694Z,97466.72
2022-09-14T06:13:00.167Z,97467.50
2022-09-14T06:14:03.611Z,97462.03
2022-09-14T06:15:07.037Z,97456.94
2022-09-14T06:16:13.973Z,97457.75
2022-09-14T06:17:16.839Z,97458.50
2022-09-14T06:18:19.820Z,97461.38
2022-09-14T06:19:22.710Z,97466.97
2022-09-14T06:20:25.677Z,97458.41
2022-09-14T06:21:31.387Z,97465.31
2022-09-14T06:22:34.502Z,97466.97
2022-09-14T06:23:37.717Z,97465.44
2022-09-14T06:24:40.673Z,97463.22
2022-09-14T06:25:43.587Z,97469.78
2022-09-14T06:26:46.635Z,97468.16
2022-09-14T06:27:49.746Z,97465.97
2022-09-14T06:28:53.786Z,97467.69
2022-09-14T06:29:57.031Z,97461.75
2022-09-14T06:31:01.048Z,97459.62
2022-09-14T06:32:04.080Z,97455.16
2022-09-14T06:33:06.916Z,97458.00
2022-09-14T06:34:13.647Z,97458.91
2022-09-14T06:35:16.554Z,97459.09
2022-09-14T06:36:25.573Z,97465.38
2022-09-14T06:37:28.368Z,97465.81
2022-09-14T06:38:31.483Z,97480.03
2022-09-14T06:39:34.550Z,97485.47
2022-09-14T06:40:37.355Z,97485.06
2022-09-14T06:41:43.605Z,97496.66
2022-09-14T06:42:46.502Z,97497.97
2022-09-14T06:43:50.644Z,97498.97
2022-09-14T06:44:53.557Z,97500.91
2022-09-14T06:46:05.052Z,97507.28
2022-09-14T06:47:08.062Z,97513.12
2022-09-14T06:48:10.956Z,97507.78
2022-09-14T06:49:20.868Z,97512.16
2022-09-14T06:50:24.069Z,97505.22
2022-09-14T06:51:35.120Z,97502.75
2022-09-14T06:52:38.084Z,97499.56
2022-09-14T06:53:43.217Z,97498.97
2022-09-14T06:54:47.080Z,97513.38
2022-09-14T06:55:50.228Z,97497.62
2022-09-14T06:56:53.439Z,97501.13
2022-09-14T06:57:56.370Z,97496.53
2022-09-14T06:58:59.629Z,97499.59
2022-09-14T07:00:03.092Z,97487.53
2022-09-14T07:01:17.736Z,97490.59
2022-09-14T07:02:21.039Z,97471.59
2022-09-14T07:03:27.764Z,97490.25
2022-09-14T07:04:30.698Z,97485.47
2022-09-14T07:05:33.798Z,97492.19
2022-09-14T07:06:49.280Z,97490.66
2022-09-14T07:07:53.640Z,97490.34
2022-09-14T07:08:56.725Z,97470.00
2022-09-14T07:09:59.539Z,97463.09
2022-09-14T07:11:03.242Z,97449.03
2022-09-14T07:12:06.212Z,97441.38
2022-09-14T07:13:09.037Z,97447.28
2022-09-14T07:14:12.897Z,97456.69
2022-09-14T07:15:16.060Z,97461.31
2022-09-14T07:16:18.914Z,97475.75
2022-09-14T07:17:22.625Z,97475.84
2022-09-14T07:18:32.136Z,97477.47
2022-09-14T07:19:34.953Z,97487.09
2022-09-14T07:20:37.879Z,97497.41
2022-09-14T07:21:41.421Z,97496.59
2022-09-14T07:22:44.392Z,97504.91
2022-09-14T07:23:48.477Z,97507.59
2022-09-14T07:24:51.386Z,97494.37
2022-09-14T07:26:22.276Z,97503.44
2022-09-14T07:27:25.091Z,97501.19
2022-09-14T07:28:32.290Z,97500.44
2022-09-14T07:29:36.069Z,97497.12
2022-09-14T07:30:39.614Z,97487.09
2022-09-14T07:31:44.950Z,97483.19
2022-09-14T07:32:47.730Z,97474.59
2022-09-14T07:33:55.830Z,97480.50
2022-09-14T07:34:58.776Z,97481.03
2022-09-14T07:36:10.858Z,97475.16
2022-09-14T07:37:13.761Z,97482.81
2022-09-14T07:38:26.953Z,97476.91
2022-09-14T07:39:38.677Z,97483.59
2022-09-14T07:40:47.610Z,97477.25
2022-09-14T07:41:50.511Z,97474.94
2022-09-14T07:42:57.640Z,97481.31
2022-09-14T07:44:02.556Z,97476.13
2022-09-14T07:45:06.344Z,97475.06
2022-09-14T07:46:09.409Z,97462.34
2022-09-14T07:47:12.545Z,97472.66
2022-09-14T07:48:15.507Z,97478.03
2022-09-14T07:49:18.662Z,97473.97
2022-09-14T07:50:21.882Z,97473.44
2022-09-14T07:51:25.882Z,97471.25
2022-09-14T07:52:28.755Z,97472.44
2022-09-14T07:53:32.495Z,97471.22
2022-09-14T07:54:35.804Z,97468.03
2022-09-14T07:55:42.316Z,97474.38
2022-09-14T07:56:46.041Z,97474.06
2022-09-14T07:57:56.392Z,97483.44
2022-09-14T07:59:23.712Z,97481.94
2022-09-14T08:00:27.239Z,97480.56
2022-09-14T08:01:30.854Z,97480.44
2022-09-14T08:02:34.898Z,97470.41
2022-09-14T08:03:40.460Z,97467.06
2022-09-14T08:04:43.688Z,97451.56
2022-09-14T08:05:46.668Z,97452.25
2022-09-14T08:06:49.630Z,97447.00
2022-09-14T08:07:56.642Z,97445.25
2022-09-14T08:08:59.603Z,97448.28
2022-09-14T08:10:02.582Z,97445.06
2022-09-14T08:11:12.137Z,97440.06
2022-09-14T08:12:16.521Z,97428.12
2022-09-14T08:13:19.365Z,97423.03
2022-09-14T08:14:22.473Z,97432.37
2022-09-14T08:15:28.374Z,97445.31
2022-09-14T08:16:34.858Z,97446.66
2022-09-14T08:17:38.697Z,97444.91
2022-09-14T08:18:41.986Z,97445.00
2022-09-14T08:19:45.358Z,97451.12
2022-09-14T08:20:48.236Z,97443.38
2022-09-14T08:21:51.604Z,97452.72
2022-09-14T08:22:54.394Z,97444.84
2022-09-14T08:24:01.778Z,97454.66
2022-09-14T08:25:05.088Z,97452.97
2022-09-14T08:26:14.028Z,97461.31
2022-09-14T08:27:17.456Z,97458.44
2022-09-14T08:28:20.460Z,97450.34
2022-09-14T08:29:23.369Z,97450.59
2022-09-14T08:30:26.239Z,97450.66
2022-09-14T08:31:29.692Z,97444.72
2022-09-14T08:32:32.880Z,97442.94
2022-09-14T08:33:38.941Z,97449.63
2022-09-14T08:34:41.925Z,97453.22
2022-09-14T08:35:58.670Z,97446.94
2022-09-14T08:37:01.563Z,97439.72
2022-09-14T08:38:04.347Z,97444.50
2022-09-14T08:39:14.884Z,97437.69
2022-09-14T08:40:19.565Z,97442.91
2022-09-14T08:41:22.581Z,97440.25
2022-09-14T08:42:26.172Z,97434.22
2022-09-14T08:43:29.102Z,97434.81
2022-09-14T08:44:47.413Z,97444.06
2022-09-14T08:45:53.408Z,97442.06
2022-09-14T08:47:40.133Z,97435.94
2022-09-14T08:48:49.656Z,97439.94
2022-09-14T08:50:17.507Z,97440.09
2022-09-14T08:51:22.672Z,97440.87
2022-09-14T08:52:39.299Z,97442.91
2022-09-14T08:53:44.626Z,97442.69
2022-09-14T08:54:50.580Z,97443.00
2022-09-14T08:56:00.370Z,97435.88
2022-09-14T08:57:17.937Z,97438.78
2022-09-14T08:58:46.287Z,97436.19
2022-09-14T09:00:08.563Z,97427.09
2022-09-14T09:01:45.426Z,97423.59
2022-09-14T09:03:15.705Z,97432.81
2022-09-14T09:04:48.290Z,97427.28
2022-09-14T09:06:06.295Z,97432.69
2022-09-14T09:07:29.247Z,97434.91
2022-09-14T09:08:43.387Z,97429.38
2022-09-14T09:09:55.084Z,97429.62
2022-09-14T09:11:00.990Z,97424.47
2022-09-14T09:12:06.013Z,97422.88
2022-09-14T09:13:14.757Z,97427.56
2022-09-14T09:14:30.506Z,97429.78
2022-09-14T09:15:41.471Z,97435.28
2022-09-14T09:16:49.067Z,97450.53
2022-09-14T09:18:00.140Z,97439.63
2022-09-14T09:19:12.038Z,97455.37
2022-09-14T09:20:26.826Z,97456.63
2022-09-14T09:21:35.799Z,97460.06
2022-09-14T09:23:12.611Z,97458.72
2022-09-14T09:24:40.944Z,97467.75
2022-09-14T09:26:06.777Z,97467.78
2022-09-14T09:27:16.040Z,97475.03
2022-09-14T09:28:20.183Z,97477.75
2022-09-14T09:29:23.893Z,97481.59
2022-09-14T09:30:30.019Z,97479.28
2022-09-14T09:31:39.921Z,97491.94
2022-09-14T09:32:43.349Z,97489.97
2022-09-14T09:33:49.370Z,97489.69
2022-09-14T09:34:52.425Z,97495.88
2022-09-14T09:35:55.871Z,97495.56
2022-09-14T09:37:01.404Z,97494.84
2022-09-14T09:38:13.936Z,97503.19
2022-09-14T09:39:17.737Z,97495.19
2022-09-14T09:40:29.259Z,97494.09
2022-09-14T09:42:01.712Z,97491.81
2022-09-14T09:43:06.323Z,97492.47
2022-09-14T09:44:10.778Z,97484.94
2022-09-14T09:45:13.853Z,97490.62
2022-09-14T09:46:18.104Z,97476.22
2022-09-14T09:47:37.946Z,97483.03
2022-09-14T09:48:43.367Z,97475.47
2022-09-14T09:49:46.602Z,97481.91
2022-09-14T09:50:59.191Z,97478.47
2022-09-14T09:52:29.225Z,97481.47
2022-09-14T09:53:35.421Z,97478.75
2022-09-14T09:54:41.991Z,97474.59
2022-09-14T09:55:49.934Z,97476.38
2022-09-14T09:57:16.380Z,97473.84
2022-09-14T09:58:28.128Z,97476.94
2022-09-14T09:59:38.351Z,97477.34
2022-09-14T10:00:44.451Z,97476.97
2022-09-14T10:01:47.585Z,97484.59
2022-09-14T10:02:52.052Z,97482.28
2022-09-14T10:04:20.973Z,97479.22
2022-09-14T10:05:29.252Z,97480.28
2022-09-14T10:06:40.726Z,97484.47
2022-09-14T10:07:49.863Z,97485.53
2022-09-14T10:08:55.378Z,97488.03
2022-09-14T10:10:20.199Z,97489.62
2022-09-14T10:11:38.597Z,97499.22
2022-09-14T10:12:48.642Z,97496.84
2022-09-14T10:13:51.503Z,97496.31
2022-09-14T10:15:14.624Z,97499.34
2022-09-14T10:16:20.355Z,97498.75
2022-09-14T10:17:24.079Z,97496.56
2022-09-14T10:18:30.208Z,97492.84
2022-09-14T10:19:33.672Z,97489.47
2022-09-14T10:20:40.152Z,97477.28
2022-09-14T10:22:25.714Z,97484.50
2022-09-14T10:23:33.603Z,97487.59
2022-09-14T10:24:38.243Z,97483.81
2022-09-14T10:25:41.273Z,97481.88
2022-09-14T10:26:44.347Z,97479.03
2022-09-14T10:27:56.418Z,97480.69
2022-09-14T10:29:42.721Z,97471.75
2022-09-14T10:30:57.712Z,97469.87
2022-09-14T10:32:17.963Z,97465.09
2022-09-14T10:33:21.095Z,97463.47
2022-09-14T10:34:24.117Z,97462.72
2022-09-14T10:35:49.782Z,97457.91
2022-09-14T10:37:07.666Z,97462.22
2022-09-14T10:38:46.316Z,97450.16
2022-09-14T10:40:13.807Z,97455.28
2022-09-14T10:41:43.894Z,97458.31
2022-09-14T10:43:43.507Z,97463.78
2022-09-14T10:44:49.106Z,97457.66
2022-09-14T10:45:56.201Z,97456.41
2022-09-14T10:47:10.684Z,97453.16
2022-09-14T10:48:46.341Z,97461.22
2022-09-14T10:50:15.985Z,97461.69
2022-09-14T10:51:43.813Z,97461.88
2022-09-14T10:53:06.394Z,97469.56
2022-09-14T10:54:46.821Z,97474.56
2022-09-14T10:56:29.155Z,97478.44
2022-09-14T10:57:41.870Z,97470.75
2022-09-14T10:59:32.090Z,97466.97
2022-09-14T11:01:05.931Z,97467.38
2022-09-14T11:02:27.745Z,97470.44
2022-09-14T11:03:55.352Z,97469.22
2022-09-14T11:05:20.288Z,97466.19
2022-09-14T11:06:31.835Z,97478.47
2022-09-14T11:07:39.441Z,97468.19
2022-09-14T11:08:49.011Z,97470.09
2022-09-14T11:10:15.298Z,97477.34
2022-09-14T11:11:47.042Z,97471.28
2022-09-14T11:13:05.338Z,97462.09
2022-09-14T11:14:39.779Z,97457.94
2022-09-14T11:16:10.283Z,97459.09
2022-09-14T11:17:49.357Z,97465.19
2022-09-14T11:19:11.348Z,97458.31
2022-09-14T11:20:33.330Z,97459.88
2022-09-14T11:21:54.536Z,97458.31
2022-09-14T11:23:32.228Z,97457.56
2022-09-14T11:24:43.485Z,97448.75
2022-09-14T11:25:53.109Z,97453.72
2022-09-14T11:27:03.726Z,97464.03
2022-09-14T11:28:30.139Z,97464.38
2022-09-14T11:29:41.975Z,97460.56
2022-09-14T11:31:02.431Z,97461.31
2022-09-14T11:32:21.123Z,97464.63
2022-09-14T11:33:36.089Z,97462.41
2022-09-14T11:34:58.275Z,97467.41
2022-09-14T11:36:16.608Z,97469.72
2022-09-14T11:37:25.359Z,97464.34
2022-09-14T11:38:48.797Z,97463.63
2022-09-14T11:40:15.015Z,97459.81
2022-09-14T11:41:25.394Z,97457.16
2022-09-14T11:42:35.976Z,97454.00
2022-09-14T11:44:01.991Z,97450.66
2022-09-14T11:45:16.716Z,97441.56
2022-09-14T11:46:27.138Z,97445.78
2022-09-14T11:47:37.554Z,97443.84
2022-09-14T11:49:13.009Z,97440.44
2022-09-14T11:50:27.145Z,97438.91
2022-09-14T11:52:24.657Z,97441.97
2022-09-14T11:53:27.946Z,97446.09
2022-09-14T11:54:51.161Z,97445.38
2022-09-14T11:55:54.280Z,97453.34
2022-09-14T11:57:00.944Z,97449.97
2022-09-14T11:58:07.705Z,97444.25
2022-09-14T11:59:36.020Z,97448.06
2022-09-14T12:01:00.777Z,97454.91
2022-09-14T12:02:27.982Z,97449.56
2022-09-14T12:03:56.991Z,97446.50
2022-09-14T12:05:06.131Z,97441.53
2022-09-14T12:06:33.814Z,97440.75
2022-09-14T12:07:39.634Z,97444.59
2022-09-14T12:08:42.777Z,97438.81
2022-09-14T12:09:48.762Z,97441.88
2022-09-14T12:11:09.816Z,97435.66
2022-09-14T12:12:31.643Z,97439.06
2022-09-14T12:13:35.239Z,97436.25
2022-09-14T12:14:41.069Z,97442.63
2022-09-14T12:15:45.291Z,97433.75
2022-09-14T12:17:22.589Z,97436.31
2022-09-14T12:18:28.387Z,97430.47
2022-09-14T12:19:32.297Z,97430.59
2022-09-14T12:20:40.849Z,97435.50
2022-09-14T12:21:43.753Z,97434.78
2022-09-14T12:22:49.994Z,97426.31
2022-09-14T12:23:58.107Z,97424.19
2022-09-14T12:25:15.909Z,97424.75
2022-09-14T12:26:18.789Z,97429.94
2022-09-14T12:27:23.334Z,97432.41
2022-09-14T12:28:48.671Z,97427.78
2022-09-14T12:29:51.764Z,97428.22
2022-09-14T12:30:54.759Z,97430.56
2022-09-14T12:32:03.062Z,97430.75
2022-09-14T12:33:34.525Z,97428.47
2022-09-14T12:34:37.457Z,97421.75
2022-09-14T12:35:40.260Z,97428.12
2022-09-14T12:36:43.307Z,97417.69
2022-09-14T12:37:46.389Z,97410.19
2022-09-14T12:38:55.389Z,97407.78
2022-09-14T12:40:36.614Z,97412.69
2022-09-14T12:41:39.681Z,97406.72
2022-09-14T12:42:42.512Z,97403.28
2022-09-14T12:43:45.394Z,97398.66
2022-09-14T12:44:48.313Z,97402.84
2022-09-14T12:46:00.472Z,97397.38
2022-09-14T12:47:22.186Z,97402.19
2022-09-14T12:48:51.324Z,97394.94
2022-09-14T12:49:58.074Z,97398.31
2022-09-14T12:51:02.714Z,97392.84
2022-09-14T12:52:19.209Z,97395.72
2022-09-14T12:53:30.064Z,97385.88
2022-09-14T12:55:15.003Z,97380.63
2022-09-14T12:56:30.226Z,97381.56
2022-09-14T12:57:49.448Z,97379.00
2022-09-14T12:59:17.068Z,97373.31
2022-09-14T13:00:20.866Z,97374.25
2022-09-14T13:01:33.404Z,97367.66
2022-09-14T13:03:10.483Z,97362.78
2022-09-14T13:04:20.596Z,97354.56
2022-09-14T13:05:28.240Z,97356.25
2022-09-14T13:06:41.491Z,97354.22
2022-09-14T13:07:45.640Z,97357.19
2022-09-14T13:08:53.268Z,97362.13
2022-09-14T13:09:58.677Z,97361.16
2022-09-14T13:11:01.611Z,97367.47
2022-09-14T13:12:06.958Z,97365.81
2022-09-14T13:13:17.914Z,97365.72
2022-09-14T13:14:24.420Z,97361.53
2022-09-14T13:15:33.785Z,97360.19
2022-09-14T13:16:43.466Z,97360.59
2022-09-14T13:18:24.367Z,97363.03
2022-09-14T13:19:32.441Z,97361.69
2022-09-14T13:20:36.202Z,97357.16
2022-09-14T13:21:47.994Z,97363.44
2022-09-14T13:22:50.922Z,97366.63
2022-09-14T13:23:53.937Z,97371.84
2022-09-14T13:24:56.925Z,97372.37
2022-09-14T13:26:00.281Z,97370.00
2022-09-14T13:27:04.587Z,97375.19
2022-09-14T13:28:17.934Z,97368.41
2022-09-14T13:29:21.653Z,97372.00
2022-09-14T13:30:26.313Z,97365.41
2022-09-14T13:31:33.955Z,97361.72
2022-09-14T13:32:42.974Z,97369.25
2022-09-14T13:33:52.060Z,97371.72
2022-09-14T13:34:55.275Z,97374.41